sensor_id;sensor_type;location;lat;lon;timestamp;P1;durP1;ratioP1;P2;durP2;ratioP2
76259;SDS011;65076;52.362;6.588;2023-07-08T00:00:27;4.85;;;2.38;;
76259;SDS011;65076;52.362;6.588;2023-07-08T00:02:55;4.20;;;2.58;;
76259;SDS011;65076;52.362;6.588;2023-07-08T00:05:24;5.40;;;3.10;;
76259;SDS011;65076;52.362;6.588;2023-07-08T00:07:53;7.97;;;2.88;;
76259;SDS011;65076;52.362;6.588;2023-07-08T00:10:23;5.75;;;2.38;;
76259;SDS011;65076;52.362;6.588;2023-07-08T00:12:55;5.13;;;2.50;;
76259;SDS011;65076;52.362;6.588;2023-07-08T00:15:26;7.07;;;3.72;;
76259;SDS011;65076;52.362;6.588;2023-07-08T00:17:58;7.10;;;2.75;;
76259;SDS011;65076;52.362;6.588;2023-07-08T00:20:28;3.42;;;2.55;;
76259;SDS011;65076;52.362;6.588;2023-07-08T00:23:03;3.13;;;2.30;;
76259;SDS011;65076;52.362;6.588;2023-07-08T00:25:32;5.38;;;3.05;;
76259;SDS011;65076;52.362;6.588;2023-07-08T00:28:00;3.97;;;2.33;;
76259;SDS011;65076;52.362;6.588;2023-07-08T00:30:29;5.43;;;3.08;;
76259;SDS011;65076;52.362;6.588;2023-07-08T00:32:58;4.97;;;2.80;;
76259;SDS011;65076;52.362;6.588;2023-07-08T00:35:29;4.90;;;2.88;;
76259;SDS011;65076;52.362;6.588;2023-07-08T00:38:01;3.03;;;2.50;;
76259;SDS011;65076;52.362;6.588;2023-07-08T00:40:50;3.97;;;2.50;;
76259;SDS011;65076;52.362;6.588;2023-07-08T00:43:21;5.90;;;2.55;;
76259;SDS011;65076;52.362;6.588;2023-07-08T00:46:03;5.00;;;2.53;;
76259;SDS011;65076;52.362;6.588;2023-07-08T00:48:48;3.78;;;2.50;;
76259;SDS011;65076;52.362;6.588;2023-07-08T00:51:19;3.30;;;2.50;;
76259;SDS011;65076;52.362;6.588;2023-07-08T00:53:50;4.47;;;2.80;;
76259;SDS011;65076;52.362;6.588;2023-07-08T00:56:21;4.35;;;3.10;;
76259;SDS011;65076;52.362;6.588;2023-07-08T00:58:55;3.75;;;2.58;;
76259;SDS011;65076;52.362;6.588;2023-07-08T01:01:28;3.42;;;2.47;;
76259;SDS011;65076;52.362;6.588;2023-07-08T01:04:02;6.80;;;2.88;;
76259;SDS011;65076;52.362;6.588;2023-07-08T01:06:38;4.43;;;2.97;;
76259;SDS011;65076;52.362;6.588;2023-07-08T01:09:11;3.88;;;2.42;;
76259;SDS011;65076;52.362;6.588;2023-07-08T01:11:44;6.00;;;3.75;;
76259;SDS011;65076;52.362;6.588;2023-07-08T01:14:13;5.80;;;2.67;;
76259;SDS011;65076;52.362;6.588;2023-07-08T01:16:46;3.05;;;2.42;;
76259;SDS011;65076;52.362;6.588;2023-07-08T01:19:17;3.60;;;2.50;;
76259;SDS011;65076;52.362;6.588;2023-07-08T01:21:59;4.60;;;2.92;;
76259;SDS011;65076;52.362;6.588;2023-07-08T01:24:29;3.75;;;2.38;;
76259;SDS011;65076;52.362;6.588;2023-07-08T01:27:00;6.53;;;2.50;;
76259;SDS011;65076;52.362;6.588;2023-07-08T01:29:32;4.70;;;3.13;;
76259;SDS011;65076;52.362;6.588;2023-07-08T01:32:01;5.30;;;3.15;;
76259;SDS011;65076;52.362;6.588;2023-07-08T01:34:29;4.90;;;3.00;;
76259;SDS011;65076;52.362;6.588;2023-07-08T01:37:01;4.88;;;2.80;;
76259;SDS011;65076;52.362;6.588;2023-07-08T01:39:33;4.95;;;2.78;;
76259;SDS011;65076;52.362;6.588;2023-07-08T01:42:01;4.32;;;2.67;;
76259;SDS011;65076;52.362;6.588;2023-07-08T01:44:30;4.30;;;2.85;;
76259;SDS011;65076;52.362;6.588;2023-07-08T01:47:02;4.45;;;2.47;;
76259;SDS011;65076;52.362;6.588;2023-07-08T01:49:39;3.75;;;2.70;;
76259;SDS011;65076;52.362;6.588;2023-07-08T01:52:10;4.20;;;2.55;;
76259;SDS011;65076;52.362;6.588;2023-07-08T01:54:40;3.72;;;2.53;;
76259;SDS011;65076;52.362;6.588;2023-07-08T01:57:08;4.55;;;2.83;;
76259;SDS011;65076;52.362;6.588;2023-07-08T01:59:36;4.25;;;2.67;;
76259;SDS011;65076;52.362;6.588;2023-07-08T02:02:04;3.88;;;2.67;;
76259;SDS011;65076;52.362;6.588;2023-07-08T02:04:32;3.83;;;2.78;;
76259;SDS011;65076;52.362;6.588;2023-07-08T02:07:00;4.80;;;3.25;;
76259;SDS011;65076;52.362;6.588;2023-07-08T02:09:31;4.30;;;2.72;;
76259;SDS011;65076;52.362;6.588;2023-07-08T02:11:59;3.90;;;2.80;;
76259;SDS011;65076;52.362;6.588;2023-07-08T02:14:26;3.55;;;2.97;;
76259;SDS011;65076;52.362;6.588;2023-07-08T02:16:54;6.72;;;3.25;;
76259;SDS011;65076;52.362;6.588;2023-07-08T02:19:23;4.45;;;2.90;;
76259;SDS011;65076;52.362;6.588;2023-07-08T02:21:51;4.35;;;3.08;;
76259;SDS011;65076;52.362;6.588;2023-07-08T02:24:20;5.95;;;3.20;;
76259;SDS011;65076;52.362;6.588;2023-07-08T02:26:50;3.88;;;2.63;;
76259;SDS011;65076;52.362;6.588;2023-07-08T02:29:18;4.85;;;2.60;;
76259;SDS011;65076;52.362;6.588;2023-07-08T02:31:46;4.43;;;3.13;;
76259;SDS011;65076;52.362;6.588;2023-07-08T02:34:14;4.85;;;2.63;;
76259;SDS011;65076;52.362;6.588;2023-07-08T02:36:42;3.72;;;2.88;;
76259;SDS011;65076;52.362;6.588;2023-07-08T02:39:10;5.97;;;3.08;;
76259;SDS011;65076;52.362;6.588;2023-07-08T02:41:38;4.75;;;3.25;;
76259;SDS011;65076;52.362;6.588;2023-07-08T02:44:07;4.45;;;2.38;;
76259;SDS011;65076;52.362;6.588;2023-07-08T02:46:35;6.38;;;3.42;;
76259;SDS011;65076;52.362;6.588;2023-07-08T02:49:03;3.92;;;2.85;;
76259;SDS011;65076;52.362;6.588;2023-07-08T02:51:32;6.97;;;3.40;;
76259;SDS011;65076;52.362;6.588;2023-07-08T02:54:00;5.28;;;3.83;;
76259;SDS011;65076;52.362;6.588;2023-07-08T02:56:28;5.38;;;2.72;;
76259;SDS011;65076;52.362;6.588;2023-07-08T02:58:56;4.65;;;2.78;;
76259;SDS011;65076;52.362;6.588;2023-07-08T03:01:25;5.82;;;3.28;;
76259;SDS011;65076;52.362;6.588;2023-07-08T03:03:53;7.05;;;3.58;;
76259;SDS011;65076;52.362;6.588;2023-07-08T03:06:23;5.25;;;3.00;;
76259;SDS011;65076;52.362;6.588;2023-07-08T03:08:51;3.42;;;3.13;;
76259;SDS011;65076;52.362;6.588;2023-07-08T03:11:19;5.00;;;3.53;;
76259;SDS011;65076;52.362;6.588;2023-07-08T03:13:47;4.28;;;2.78;;
76259;SDS011;65076;52.362;6.588;2023-07-08T03:16:15;6.40;;;3.25;;
76259;SDS011;65076;52.362;6.588;2023-07-08T03:18:45;5.00;;;3.22;;
76259;SDS011;65076;52.362;6.588;2023-07-08T03:21:13;5.15;;;3.45;;
76259;SDS011;65076;52.362;6.588;2023-07-08T03:23:44;6.22;;;3.55;;
76259;SDS011;65076;52.362;6.588;2023-07-08T03:26:12;4.07;;;2.95;;
76259;SDS011;65076;52.362;6.588;2023-07-08T03:28:43;7.57;;;3.50;;
76259;SDS011;65076;52.362;6.588;2023-07-08T03:31:11;4.75;;;2.53;;
76259;SDS011;65076;52.362;6.588;2023-07-08T03:33:39;5.40;;;3.33;;
76259;SDS011;65076;52.362;6.588;2023-07-08T03:36:09;5.40;;;3.00;;
76259;SDS011;65076;52.362;6.588;2023-07-08T03:38:49;4.72;;;3.08;;
76259;SDS011;65076;52.362;6.588;2023-07-08T03:41:18;3.97;;;3.17;;
76259;SDS011;65076;52.362;6.588;2023-07-08T03:43:47;3.80;;;3.28;;
76259;SDS011;65076;52.362;6.588;2023-07-08T03:46:19;3.55;;;3.00;;
76259;SDS011;65076;52.362;6.588;2023-07-08T03:48:50;4.03;;;2.83;;
76259;SDS011;65076;52.362;6.588;2023-07-08T03:51:21;5.32;;;2.63;;
76259;SDS011;65076;52.362;6.588;2023-07-08T03:53:52;5.03;;;2.70;;
76259;SDS011;65076;52.362;6.588;2023-07-08T03:56:20;5.88;;;3.13;;
76259;SDS011;65076;52.362;6.588;2023-07-08T03:58:48;5.38;;;3.60;;
76259;SDS011;65076;52.362;6.588;2023-07-08T04:01:17;3.92;;;3.33;;
76259;SDS011;65076;52.362;6.588;2023-07-08T04:03:48;3.92;;;2.92;;
76259;SDS011;65076;52.362;6.588;2023-07-08T04:06:18;5.75;;;3.60;;
76259;SDS011;65076;52.362;6.588;2023-07-08T04:08:48;6.03;;;3.45;;
76259;SDS011;65076;52.362;6.588;2023-07-08T04:11:18;4.95;;;3.22;;
76259;SDS011;65076;52.362;6.588;2023-07-08T04:13:48;5.05;;;3.15;;
76259;SDS011;65076;52.362;6.588;2023-07-08T04:16:19;5.70;;;3.30;;
76259;SDS011;65076;52.362;6.588;2023-07-08T04:18:54;6.32;;;3.30;;
76259;SDS011;65076;52.362;6.588;2023-07-08T04:21:23;4.72;;;3.15;;
76259;SDS011;65076;52.362;6.588;2023-07-08T04:23:54;4.28;;;2.67;;
76259;SDS011;65076;52.362;6.588;2023-07-08T04:26:21;4.13;;;2.95;;
76259;SDS011;65076;52.362;6.588;2023-07-08T04:28:49;6.25;;;3.60;;
76259;SDS011;65076;52.362;6.588;2023-07-08T04:31:18;4.70;;;3.08;;
76259;SDS011;65076;52.362;6.588;2023-07-08T04:33:46;5.22;;;3.42;;
76259;SDS011;65076;52.362;6.588;2023-07-08T04:36:14;3.85;;;3.08;;
76259;SDS011;65076;52.362;6.588;2023-07-08T04:38:42;4.65;;;2.83;;
76259;SDS011;65076;52.362;6.588;2023-07-08T04:41:14;4.95;;;3.55;;
76259;SDS011;65076;52.362;6.588;2023-07-08T04:46:14;5.53;;;3.67;;
76259;SDS011;65076;52.362;6.588;2023-07-08T04:48:49;4.70;;;3.10;;
76259;SDS011;65076;52.362;6.588;2023-07-08T04:51:16;6.43;;;3.58;;
76259;SDS011;65076;52.362;6.588;2023-07-08T04:53:45;5.18;;;2.95;;
76259;SDS011;65076;52.362;6.588;2023-07-08T04:56:14;4.43;;;3.47;;
76259;SDS011;65076;52.362;6.588;2023-07-08T04:58:43;4.18;;;2.97;;
76259;SDS011;65076;52.362;6.588;2023-07-08T05:01:11;4.15;;;3.58;;
76259;SDS011;65076;52.362;6.588;2023-07-08T05:03:39;5.60;;;3.55;;
76259;SDS011;65076;52.362;6.588;2023-07-08T05:06:07;6.32;;;3.40;;
76259;SDS011;65076;52.362;6.588;2023-07-08T05:08:35;5.07;;;3.00;;
76259;SDS011;65076;52.362;6.588;2023-07-08T05:11:03;5.15;;;3.15;;
76259;SDS011;65076;52.362;6.588;2023-07-08T05:13:32;4.65;;;3.35;;
76259;SDS011;65076;52.362;6.588;2023-07-08T05:18:28;3.38;;;2.53;;
76259;SDS011;65076;52.362;6.588;2023-07-08T05:20:56;5.55;;;3.35;;
76259;SDS011;65076;52.362;6.588;2023-07-08T05:23:24;5.07;;;3.33;;
76259;SDS011;65076;52.362;6.588;2023-07-08T05:25:52;5.50;;;3.50;;
76259;SDS011;65076;52.362;6.588;2023-07-08T05:28:21;5.38;;;3.25;;
76259;SDS011;65076;52.362;6.588;2023-07-08T05:30:53;4.65;;;3.08;;
76259;SDS011;65076;52.362;6.588;2023-07-08T05:33:22;4.18;;;3.42;;
76259;SDS011;65076;52.362;6.588;2023-07-08T05:35:52;4.47;;;3.28;;
76259;SDS011;65076;52.362;6.588;2023-07-08T05:38:20;4.88;;;3.58;;
76259;SDS011;65076;52.362;6.588;2023-07-08T05:40:49;5.05;;;3.20;;
76259;SDS011;65076;52.362;6.588;2023-07-08T05:43:18;5.22;;;3.08;;
76259;SDS011;65076;52.362;6.588;2023-07-08T05:45:45;4.72;;;2.97;;
76259;SDS011;65076;52.362;6.588;2023-07-08T05:48:32;5.03;;;3.08;;
76259;SDS011;65076;52.362;6.588;2023-07-08T05:51:00;4.82;;;3.28;;
76259;SDS011;65076;52.362;6.588;2023-07-08T05:53:28;4.97;;;3.70;;
76259;SDS011;65076;52.362;6.588;2023-07-08T05:55:56;6.10;;;3.45;;
76259;SDS011;65076;52.362;6.588;2023-07-08T05:58:24;6.15;;;3.53;;
76259;SDS011;65076;52.362;6.588;2023-07-08T06:00:56;6.50;;;3.83;;
76259;SDS011;65076;52.362;6.588;2023-07-08T06:03:26;7.05;;;3.60;;
76259;SDS011;65076;52.362;6.588;2023-07-08T06:05:55;4.47;;;3.40;;
76259;SDS011;65076;52.362;6.588;2023-07-08T06:08:23;5.22;;;3.55;;
76259;SDS011;65076;52.362;6.588;2023-07-08T06:10:51;4.72;;;3.40;;
76259;SDS011;65076;52.362;6.588;2023-07-08T06:13:20;5.80;;;3.92;;
76259;SDS011;65076;52.362;6.588;2023-07-08T06:15:50;6.35;;;3.60;;
76259;SDS011;65076;52.362;6.588;2023-07-08T06:18:18;5.53;;;3.42;;
76259;SDS011;65076;52.362;6.588;2023-07-08T06:20:52;4.03;;;3.42;;
76259;SDS011;65076;52.362;6.588;2023-07-08T06:23:22;4.13;;;3.53;;
76259;SDS011;65076;52.362;6.588;2023-07-08T06:25:51;5.75;;;3.33;;
76259;SDS011;65076;52.362;6.588;2023-07-08T06:28:19;6.95;;;3.92;;
76259;SDS011;65076;52.362;6.588;2023-07-08T06:30:48;5.53;;;3.85;;
76259;SDS011;65076;52.362;6.588;2023-07-08T06:33:17;4.43;;;3.05;;
76259;SDS011;65076;52.362;6.588;2023-07-08T06:35:45;4.78;;;3.88;;
76259;SDS011;65076;52.362;6.588;2023-07-08T06:38:13;6.20;;;3.67;;
76259;SDS011;65076;52.362;6.588;2023-07-08T06:40:42;5.78;;;3.15;;
76259;SDS011;65076;52.362;6.588;2023-07-08T06:43:10;6.78;;;3.80;;
76259;SDS011;65076;52.362;6.588;2023-07-08T06:45:38;4.82;;;3.20;;
76259;SDS011;65076;52.362;6.588;2023-07-08T06:48:07;5.40;;;3.30;;
76259;SDS011;65076;52.362;6.588;2023-07-08T06:50:37;5.38;;;3.47;;
76259;SDS011;65076;52.362;6.588;2023-07-08T06:53:05;3.17;;;2.58;;
76259;SDS011;65076;52.362;6.588;2023-07-08T06:55:34;3.40;;;2.70;;
76259;SDS011;65076;52.362;6.588;2023-07-08T06:58:04;7.47;;;3.47;;
76259;SDS011;65076;52.362;6.588;2023-07-08T07:00:34;6.18;;;3.53;;
76259;SDS011;65076;52.362;6.588;2023-07-08T07:03:02;6.07;;;2.83;;
76259;SDS011;65076;52.362;6.588;2023-07-08T07:05:31;5.82;;;2.92;;
76259;SDS011;65076;52.362;6.588;2023-07-08T07:07:59;4.90;;;2.70;;
76259;SDS011;65076;52.362;6.588;2023-07-08T07:10:27;4.75;;;3.13;;
76259;SDS011;65076;52.362;6.588;2023-07-08T07:12:55;4.40;;;2.65;;
76259;SDS011;65076;52.362;6.588;2023-07-08T07:15:24;4.72;;;3.00;;
76259;SDS011;65076;52.362;6.588;2023-07-08T07:17:52;3.88;;;3.08;;
76259;SDS011;65076;52.362;6.588;2023-07-08T07:20:20;3.85;;;3.20;;
76259;SDS011;65076;52.362;6.588;2023-07-08T07:22:48;4.85;;;2.90;;
76259;SDS011;65076;52.362;6.588;2023-07-08T07:27:45;3.60;;;2.60;;
76259;SDS011;65076;52.362;6.588;2023-07-08T07:30:13;2.58;;;2.25;;
76259;SDS011;65076;52.362;6.588;2023-07-08T07:32:43;5.20;;;3.13;;
76259;SDS011;65076;52.362;6.588;2023-07-08T07:35:12;5.20;;;2.85;;
76259;SDS011;65076;52.362;6.588;2023-07-08T07:37:42;6.63;;;2.95;;
76259;SDS011;65076;52.362;6.588;2023-07-08T07:40:11;4.18;;;2.92;;
76259;SDS011;65076;52.362;6.588;2023-07-08T07:42:43;4.60;;;2.95;;
76259;SDS011;65076;52.362;6.588;2023-07-08T07:45:13;3.83;;;2.65;;
76259;SDS011;65076;52.362;6.588;2023-07-08T07:47:43;4.20;;;2.70;;
76259;SDS011;65076;52.362;6.588;2023-07-08T07:50:11;4.05;;;3.20;;
76259;SDS011;65076;52.362;6.588;2023-07-08T07:52:38;3.80;;;2.83;;
76259;SDS011;65076;52.362;6.588;2023-07-08T07:55:07;3.95;;;2.60;;
76259;SDS011;65076;52.362;6.588;2023-07-08T07:57:36;4.15;;;2.97;;
76259;SDS011;65076;52.362;6.588;2023-07-08T08:00:04;3.65;;;3.05;;
76259;SDS011;65076;52.362;6.588;2023-07-08T08:02:35;5.45;;;3.10;;
76259;SDS011;65076;52.362;6.588;2023-07-08T08:05:05;4.22;;;2.85;;
76259;SDS011;65076;52.362;6.588;2023-07-08T08:07:33;4.30;;;2.95;;
76259;SDS011;65076;52.362;6.588;2023-07-08T08:10:02;3.42;;;3.03;;
76259;SDS011;65076;52.362;6.588;2023-07-08T08:12:31;3.50;;;3.13;;
76259;SDS011;65076;52.362;6.588;2023-07-08T08:15:17;2.85;;;2.40;;
76259;SDS011;65076;52.362;6.588;2023-07-08T08:17:45;5.18;;;3.05;;
76259;SDS011;65076;52.362;6.588;2023-07-08T08:20:17;5.80;;;3.13;;
76259;SDS011;65076;52.362;6.588;2023-07-08T08:22:46;4.13;;;2.75;;
76259;SDS011;65076;52.362;6.588;2023-07-08T08:25:14;3.85;;;2.90;;
76259;SDS011;65076;52.362;6.588;2023-07-08T08:27:46;3.42;;;2.92;;
76259;SDS011;65076;52.362;6.588;2023-07-08T08:30:14;4.30;;;2.80;;
76259;SDS011;65076;52.362;6.588;2023-07-08T08:32:42;5.70;;;2.78;;
76259;SDS011;65076;52.362;6.588;2023-07-08T08:35:10;4.97;;;2.67;;
76259;SDS011;65076;52.362;6.588;2023-07-08T08:37:39;3.70;;;2.90;;
76259;SDS011;65076;52.362;6.588;2023-07-08T08:40:09;5.35;;;3.45;;
76259;SDS011;65076;52.362;6.588;2023-07-08T08:42:50;4.10;;;2.83;;
76259;SDS011;65076;52.362;6.588;2023-07-08T08:45:25;3.65;;;2.97;;
76259;SDS011;65076;52.362;6.588;2023-07-08T08:47:57;3.58;;;3.22;;
76259;SDS011;65076;52.362;6.588;2023-07-08T08:50:30;5.22;;;3.15;;
76259;SDS011;65076;52.362;6.588;2023-07-08T08:53:05;4.45;;;2.55;;
76259;SDS011;65076;52.362;6.588;2023-07-08T08:55:40;4.38;;;2.95;;
76259;SDS011;65076;52.362;6.588;2023-07-08T08:58:12;5.68;;;3.33;;
76259;SDS011;65076;52.362;6.588;2023-07-08T09:00:56;4.03;;;3.00;;
76259;SDS011;65076;52.362;6.588;2023-07-08T09:03:36;4.70;;;2.90;;
76259;SDS011;65076;52.362;6.588;2023-07-08T09:06:13;6.65;;;3.20;;
76259;SDS011;65076;52.362;6.588;2023-07-08T09:08:47;3.95;;;3.08;;
76259;SDS011;65076;52.362;6.588;2023-07-08T09:11:30;3.70;;;3.00;;
76259;SDS011;65076;52.362;6.588;2023-07-08T09:14:12;4.20;;;3.03;;
76259;SDS011;65076;52.362;6.588;2023-07-08T09:16:49;5.63;;;3.20;;
76259;SDS011;65076;52.362;6.588;2023-07-08T09:19:28;5.90;;;3.53;;
76259;SDS011;65076;52.362;6.588;2023-07-08T09:22:03;4.50;;;2.67;;
76259;SDS011;65076;52.362;6.588;2023-07-08T09:24:43;3.47;;;3.17;;
76259;SDS011;65076;52.362;6.588;2023-07-08T09:27:19;5.35;;;3.47;;
76259;SDS011;65076;52.362;6.588;2023-07-08T09:29:48;4.35;;;2.92;;
76259;SDS011;65076;52.362;6.588;2023-07-08T09:32:17;3.35;;;3.05;;
76259;SDS011;65076;52.362;6.588;2023-07-08T09:34:49;4.55;;;3.22;;
76259;SDS011;65076;52.362;6.588;2023-07-08T09:37:24;5.53;;;2.92;;
76259;SDS011;65076;52.362;6.588;2023-07-08T09:39:58;3.72;;;2.80;;
76259;SDS011;65076;52.362;6.588;2023-07-08T09:42:32;4.28;;;3.20;;
76259;SDS011;65076;52.362;6.588;2023-07-08T09:45:03;5.00;;;3.40;;
76259;SDS011;65076;52.362;6.588;2023-07-08T09:47:40;4.45;;;3.08;;
76259;SDS011;65076;52.362;6.588;2023-07-08T09:50:15;3.83;;;3.30;;
76259;SDS011;65076;52.362;6.588;2023-07-08T09:52:47;5.03;;;3.20;;
76259;SDS011;65076;52.362;6.588;2023-07-08T09:55:17;4.10;;;2.97;;
76259;SDS011;65076;52.362;6.588;2023-07-08T09:57:46;4.20;;;3.28;;
76259;SDS011;65076;52.362;6.588;2023-07-08T10:00:18;5.30;;;3.30;;
76259;SDS011;65076;52.362;6.588;2023-07-08T10:02:55;5.05;;;3.58;;
76259;SDS011;65076;52.362;6.588;2023-07-08T10:05:27;4.43;;;3.00;;
76259;SDS011;65076;52.362;6.588;2023-07-08T10:08:02;4.13;;;3.17;;
76259;SDS011;65076;52.362;6.588;2023-07-08T10:10:42;4.82;;;2.80;;
76259;SDS011;65076;52.362;6.588;2023-07-08T10:13:15;4.18;;;3.10;;
76259;SDS011;65076;52.362;6.588;2023-07-08T10:15:51;4.20;;;3.30;;
76259;SDS011;65076;52.362;6.588;2023-07-08T10:18:27;5.55;;;3.53;;
76259;SDS011;65076;52.362;6.588;2023-07-08T10:20:59;4.60;;;2.78;;
76259;SDS011;65076;52.362;6.588;2023-07-08T10:23:43;3.47;;;3.05;;
76259;SDS011;65076;52.362;6.588;2023-07-08T10:26:23;6.10;;;3.95;;
76259;SDS011;65076;52.362;6.588;2023-07-08T10:29:01;4.25;;;2.88;;
76259;SDS011;65076;52.362;6.588;2023-07-08T10:31:46;6.90;;;3.20;;
76259;SDS011;65076;52.362;6.588;2023-07-08T10:34:32;5.18;;;3.22;;
76259;SDS011;65076;52.362;6.588;2023-07-08T10:37:17;7.32;;;3.72;;
76259;SDS011;65076;52.362;6.588;2023-07-08T10:40:07;4.60;;;3.55;;
76259;SDS011;65076;52.362;6.588;2023-07-08T10:43:07;3.90;;;3.35;;
76259;SDS011;65076;52.362;6.588;2023-07-08T10:45:56;4.85;;;3.70;;
76259;SDS011;65076;52.362;6.588;2023-07-08T10:48:51;6.88;;;3.28;;
76259;SDS011;65076;52.362;6.588;2023-07-08T10:51:54;5.95;;;3.58;;
76259;SDS011;65076;52.362;6.588;2023-07-08T10:54:56;5.30;;;3.70;;
76259;SDS011;65076;52.362;6.588;2023-07-08T10:57:53;4.95;;;3.40;;
76259;SDS011;65076;52.362;6.588;2023-07-08T11:00:58;5.35;;;3.60;;
76259;SDS011;65076;52.362;6.588;2023-07-08T11:03:44;6.53;;;3.42;;
76259;SDS011;65076;52.362;6.588;2023-07-08T11:06:40;5.30;;;3.72;;
76259;SDS011;65076;52.362;6.588;2023-07-08T11:09:21;5.00;;;3.40;;
76259;SDS011;65076;52.362;6.588;2023-07-08T11:11:56;4.03;;;3.55;;
76259;SDS011;65076;52.362;6.588;2023-07-08T11:14:40;4.40;;;3.42;;
76259;SDS011;65076;52.362;6.588;2023-07-08T11:17:18;4.63;;;3.95;;
76259;SDS011;65076;52.362;6.588;2023-07-08T11:19:55;4.40;;;3.55;;
76259;SDS011;65076;52.362;6.588;2023-07-08T11:22:30;4.90;;;3.60;;
76259;SDS011;65076;52.362;6.588;2023-07-08T11:25:04;4.18;;;3.40;;
76259;SDS011;65076;52.362;6.588;2023-07-08T11:27:45;4.20;;;3.42;;
76259;SDS011;65076;52.362;6.588;2023-07-08T11:30:22;6.10;;;3.90;;
76259;SDS011;65076;52.362;6.588;2023-07-08T11:32:54;5.47;;;4.47;;
76259;SDS011;65076;52.362;6.588;2023-07-08T11:35:34;4.25;;;3.80;;
76259;SDS011;65076;52.362;6.588;2023-07-08T11:38:10;5.65;;;3.90;;
76259;SDS011;65076;52.362;6.588;2023-07-08T11:40:49;5.45;;;3.65;;
76259;SDS011;65076;52.362;6.588;2023-07-08T11:43:21;5.53;;;4.10;;
76259;SDS011;65076;52.362;6.588;2023-07-08T11:45:55;4.57;;;3.80;;
76259;SDS011;65076;52.362;6.588;2023-07-08T11:48:25;4.10;;;3.70;;
76259;SDS011;65076;52.362;6.588;2023-07-08T11:50:58;5.82;;;4.22;;
76259;SDS011;65076;52.362;6.588;2023-07-08T11:53:36;5.57;;;4.05;;
76259;SDS011;65076;52.362;6.588;2023-07-08T11:56:19;6.45;;;4.20;;
76259;SDS011;65076;52.362;6.588;2023-07-08T11:58:53;6.50;;;4.10;;
76259;SDS011;65076;52.362;6.588;2023-07-08T12:01:37;5.53;;;4.00;;
76259;SDS011;65076;52.362;6.588;2023-07-08T12:04:17;5.63;;;4.15;;
76259;SDS011;65076;52.362;6.588;2023-07-08T12:09:56;5.63;;;4.50;;
76259;SDS011;65076;52.362;6.588;2023-07-08T12:12:29;5.22;;;4.47;;
76259;SDS011;65076;52.362;6.588;2023-07-08T12:15:05;5.55;;;4.20;;
76259;SDS011;65076;52.362;6.588;2023-07-08T12:17:44;5.63;;;4.05;;
76259;SDS011;65076;52.362;6.588;2023-07-08T12:20:17;4.38;;;3.60;;
76259;SDS011;65076;52.362;6.588;2023-07-08T12:22:50;5.10;;;4.57;;
76259;SDS011;65076;52.362;6.588;2023-07-08T12:27:49;5.57;;;4.30;;
76259;SDS011;65076;52.362;6.588;2023-07-08T12:30:17;4.45;;;4.00;;
76259;SDS011;65076;52.362;6.588;2023-07-08T12:32:48;4.60;;;4.13;;
76259;SDS011;65076;52.362;6.588;2023-07-08T12:35:19;5.07;;;4.22;;
76259;SDS011;65076;52.362;6.588;2023-07-08T12:37:57;4.75;;;4.32;;
76259;SDS011;65076;52.362;6.588;2023-07-08T12:40:30;5.38;;;4.00;;
76259;SDS011;65076;52.362;6.588;2023-07-08T12:42:59;5.95;;;4.90;;
76259;SDS011;65076;52.362;6.588;2023-07-08T12:45:27;5.65;;;4.35;;
76259;SDS011;65076;52.362;6.588;2023-07-08T12:47:59;5.35;;;4.45;;
76259;SDS011;65076;52.362;6.588;2023-07-08T12:50:28;6.40;;;4.75;;
76259;SDS011;65076;52.362;6.588;2023-07-08T12:52:56;7.93;;;4.57;;
76259;SDS011;65076;52.362;6.588;2023-07-08T12:55:25;6.15;;;4.43;;
76259;SDS011;65076;52.362;6.588;2023-07-08T12:57:54;6.85;;;4.35;;
76259;SDS011;65076;52.362;6.588;2023-07-08T13:00:23;7.20;;;3.90;;
76259;SDS011;65076;52.362;6.588;2023-07-08T13:02:58;5.40;;;4.20;;
76259;SDS011;65076;52.362;6.588;2023-07-08T13:05:33;7.18;;;4.35;;
76259;SDS011;65076;52.362;6.588;2023-07-08T13:08:03;5.93;;;4.70;;
76259;SDS011;65076;52.362;6.588;2023-07-08T13:10:32;5.13;;;4.38;;
76259;SDS011;65076;52.362;6.588;2023-07-08T13:13:04;6.68;;;5.00;;
76259;SDS011;65076;52.362;6.588;2023-07-08T13:15:40;6.97;;;4.90;;
76259;SDS011;65076;52.362;6.588;2023-07-08T13:18:14;5.47;;;4.05;;
76259;SDS011;65076;52.362;6.588;2023-07-08T13:23:17;5.32;;;4.13;;
76259;SDS011;65076;52.362;6.588;2023-07-08T13:25:46;5.55;;;3.90;;
76259;SDS011;65076;52.362;6.588;2023-07-08T13:28:17;7.20;;;4.30;;
76259;SDS011;65076;52.362;6.588;2023-07-08T13:30:50;7.22;;;4.18;;
76259;SDS011;65076;52.362;6.588;2023-07-08T13:33:22;9.50;;;5.50;;
76259;SDS011;65076;52.362;6.588;2023-07-08T13:35:51;6.90;;;4.53;;
76259;SDS011;65076;52.362;6.588;2023-07-08T13:38:22;6.28;;;4.43;;
76259;SDS011;65076;52.362;6.588;2023-07-08T13:40:55;6.35;;;4.30;;
76259;SDS011;65076;52.362;6.588;2023-07-08T13:43:30;6.30;;;4.30;;
76259;SDS011;65076;52.362;6.588;2023-07-08T13:46:02;6.05;;;4.30;;
76259;SDS011;65076;52.362;6.588;2023-07-08T13:48:34;6.03;;;4.00;;
76259;SDS011;65076;52.362;6.588;2023-07-08T13:53:42;5.43;;;4.15;;
76259;SDS011;65076;52.362;6.588;2023-07-08T13:56:14;6.82;;;4.38;;
76259;SDS011;65076;52.362;6.588;2023-07-08T13:58:48;7.35;;;4.35;;
76259;SDS011;65076;52.362;6.588;2023-07-08T14:01:21;5.13;;;3.83;;
76259;SDS011;65076;52.362;6.588;2023-07-08T14:03:54;7.15;;;4.35;;
76259;SDS011;65076;52.362;6.588;2023-07-08T14:06:24;8.40;;;4.50;;
76259;SDS011;65076;52.362;6.588;2023-07-08T14:08:57;5.45;;;4.15;;
76259;SDS011;65076;52.362;6.588;2023-07-08T14:11:31;5.20;;;3.88;;
76259;SDS011;65076;52.362;6.588;2023-07-08T14:13:59;7.95;;;4.43;;
76259;SDS011;65076;52.362;6.588;2023-07-08T14:16:30;8.05;;;4.57;;
76259;SDS011;65076;52.362;6.588;2023-07-08T14:19:05;6.90;;;4.30;;
76259;SDS011;65076;52.362;6.588;2023-07-08T14:21:39;5.95;;;3.88;;
76259;SDS011;65076;52.362;6.588;2023-07-08T14:24:08;5.47;;;4.13;;
76259;SDS011;65076;52.362;6.588;2023-07-08T14:26:40;5.43;;;4.22;;
76259;SDS011;65076;52.362;6.588;2023-07-08T14:29:09;6.50;;;4.10;;
76259;SDS011;65076;52.362;6.588;2023-07-08T14:31:39;7.40;;;3.90;;
76259;SDS011;65076;52.362;6.588;2023-07-08T14:34:11;8.10;;;3.72;;
76259;SDS011;65076;52.362;6.588;2023-07-08T14:36:44;5.03;;;3.55;;
76259;SDS011;65076;52.362;6.588;2023-07-08T14:39:13;6.10;;;4.13;;
76259;SDS011;65076;52.362;6.588;2023-07-08T14:41:43;5.93;;;3.85;;
76259;SDS011;65076;52.362;6.588;2023-07-08T14:44:24;7.10;;;3.90;;
76259;SDS011;65076;52.362;6.588;2023-07-08T14:46:59;5.88;;;3.83;;
76259;SDS011;65076;52.362;6.588;2023-07-08T14:49:28;5.72;;;3.92;;
76259;SDS011;65076;52.362;6.588;2023-07-08T14:51:56;6.22;;;3.70;;
76259;SDS011;65076;52.362;6.588;2023-07-08T14:54:24;7.10;;;4.05;;
76259;SDS011;65076;52.362;6.588;2023-07-08T14:56:52;5.15;;;3.92;;
76259;SDS011;65076;52.362;6.588;2023-07-08T14:59:24;7.30;;;3.75;;
76259;SDS011;65076;52.362;6.588;2023-07-08T15:01:57;5.60;;;3.65;;
76259;SDS011;65076;52.362;6.588;2023-07-08T15:04:29;5.78;;;3.70;;
76259;SDS011;65076;52.362;6.588;2023-07-08T15:06:58;5.57;;;3.65;;
76259;SDS011;65076;52.362;6.588;2023-07-08T15:09:27;6.00;;;4.32;;
76259;SDS011;65076;52.362;6.588;2023-07-08T15:11:55;5.82;;;3.85;;
76259;SDS011;65076;52.362;6.588;2023-07-08T15:14:24;5.65;;;3.83;;
76259;SDS011;65076;52.362;6.588;2023-07-08T15:16:53;7.20;;;3.63;;
76259;SDS011;65076;52.362;6.588;2023-07-08T15:19:21;6.47;;;4.13;;
76259;SDS011;65076;52.362;6.588;2023-07-08T15:21:53;5.55;;;4.00;;
76259;SDS011;65076;52.362;6.588;2023-07-08T15:24:21;7.57;;;4.28;;
76259;SDS011;65076;52.362;6.588;2023-07-08T15:26:51;5.38;;;4.07;;
76259;SDS011;65076;52.362;6.588;2023-07-08T15:29:19;6.05;;;3.88;;
76259;SDS011;65076;52.362;6.588;2023-07-08T15:31:50;7.00;;;3.97;;
76259;SDS011;65076;52.362;6.588;2023-07-08T15:34:19;5.00;;;4.10;;